KMQY  Smyrna  Airport

Smyrna, Tennessee, United States

Add Bookmark
Status Useage
Operational Public
Latitude Longitude
36° 0' 32" N 86° 31' 12" W
36.008972 -86.520083
Local (DST -5) UTC (GMT -6)
Mar 27, 2015 12:17 Mar 27, 2015 17:17
Sunrise-Sunset Local UTC
Begin Civil Twilight 06:11 11:11
Sunrise 06:37 11:37
Sunset 07:05 00:05
End Civil Twilight 07:31 00:31

Current Weather

METAR Observed VFR
KMQY 271656Z 01011KT 10SM SCT047 09/M01 A3002 Fri, Mar 27, 2015 @ 16:56 UTC
(21 Minutes ago)
Visual Flight Rules
Wind Visibility Clouds Conditions
010° at 11 knots (13 mph) 10 statute miles
  • Scattered at 4,700' AGL
  • No significant weather
Temperatures Readings Precipitation
Current Temp 9°C (48°F)
Dewpoint -1°C (30°F)
Humidity 50%
Altimeter 30.02"Hg
Sea Level Pressure 1017.5mb
Field Elevation 543'
None Recorded

Additional weather within a 50nm radius of KMQY

Map ICAO Location
KBNA 10.3nm N (312°)
KSYI 27.2nm S (173°)
KRNC 37.8nm E (119°)
KTHA 40nm S (161°)
KMRC 42.1nm S (230°)
KSRB 48.1nm E (086°)

24 Hour Weather History

Loading
-

24 Hour Weather Graphs

Loading
-

CheckWX.com is intended as a tool to help pilots better visualize weather data. It is not intended as a substitute for an official weather briefing obtained from a Flight Service Station. CheckWX.com does not meet the FAA requirements for an official pre-flight weather briefing. Therefore, it's important that pilots still call and obtain an official FSS pre-flight weather briefing.